sensor_id;sensor_type;location;lat;lon;timestamp;P1;durP1;ratioP1;P2;durP2;ratioP2
56181;SDS011;51963;46.052;14.544;2024-02-04T00:00:37;88.07;;;40.03;;
56181;SDS011;51963;46.052;14.544;2024-02-04T00:03:03;92.47;;;40.67;;
56181;SDS011;51963;46.052;14.544;2024-02-04T00:05:29;85.25;;;40.17;;
56181;SDS011;51963;46.052;14.544;2024-02-04T00:07:54;89.97;;;39.97;;
56181;SDS011;51963;46.052;14.544;2024-02-04T00:10:20;91.28;;;40.42;;
56181;SDS011;51963;46.052;14.544;2024-02-04T00:12:45;84.22;;;39.30;;
56181;SDS011;51963;46.052;14.544;2024-02-04T00:15:12;85.25;;;38.97;;
56181;SDS011;51963;46.052;14.544;2024-02-04T00:17:37;80.35;;;39.65;;
56181;SDS011;51963;46.052;14.544;2024-02-04T00:20:03;85.38;;;38.42;;
56181;SDS011;51963;46.052;14.544;2024-02-04T00:22:31;84.90;;;39.70;;
56181;SDS011;51963;46.052;14.544;2024-02-04T00:24:59;88.93;;;40.03;;
56181;SDS011;51963;46.052;14.544;2024-02-04T00:27:30;90.80;;;40.20;;
56181;SDS011;51963;46.052;14.544;2024-02-04T00:29:58;93.00;;;41.00;;
56181;SDS011;51963;46.052;14.544;2024-02-04T00:32:24;83.05;;;39.80;;
56181;SDS011;51963;46.052;14.544;2024-02-04T00:34:51;87.85;;;40.17;;
56181;SDS011;51963;46.052;14.544;2024-02-04T00:37:16;82.85;;;39.50;;
56181;SDS011;51963;46.052;14.544;2024-02-04T00:39:42;86.32;;;39.35;;
56181;SDS011;51963;46.052;14.544;2024-02-04T00:42:08;88.50;;;41.75;;
56181;SDS011;51963;46.052;14.544;2024-02-04T00:44:33;84.45;;;39.97;;
56181;SDS011;51963;46.052;14.544;2024-02-04T00:46:59;88.05;;;41.15;;
56181;SDS011;51963;46.052;14.544;2024-02-04T00:49:25;83.38;;;40.63;;
56181;SDS011;51963;46.052;14.544;2024-02-04T00:51:52;84.53;;;41.03;;
56181;SDS011;51963;46.052;14.544;2024-02-04T00:54:18;94.05;;;43.60;;
56181;SDS011;51963;46.052;14.544;2024-02-04T00:56:43;90.13;;;43.67;;
56181;SDS011;51963;46.052;14.544;2024-02-04T00:59:09;90.30;;;42.75;;
56181;SDS011;51963;46.052;14.544;2024-02-04T01:01:35;88.45;;;41.80;;
56181;SDS011;51963;46.052;14.544;2024-02-04T01:04:01;81.03;;;38.47;;
56181;SDS011;51963;46.052;14.544;2024-02-04T01:06:28;87.70;;;41.60;;
56181;SDS011;51963;46.052;14.544;2024-02-04T01:08:54;83.65;;;41.30;;
56181;SDS011;51963;46.052;14.544;2024-02-04T01:11:21;82.55;;;38.45;;
56181;SDS011;51963;46.052;14.544;2024-02-04T01:13:47;101.22;;;45.78;;
56181;SDS011;51963;46.052;14.544;2024-02-04T01:16:12;102.95;;;46.30;;
56181;SDS011;51963;46.052;14.544;2024-02-04T01:18:38;102.15;;;45.97;;
56181;SDS011;51963;46.052;14.544;2024-02-04T01:21:04;95.30;;;42.75;;
56181;SDS011;51963;46.052;14.544;2024-02-04T01:23:30;89.68;;;40.08;;
56181;SDS011;51963;46.052;14.544;2024-02-04T01:25:56;81.47;;;39.95;;
56181;SDS011;51963;46.052;14.544;2024-02-04T01:28:21;82.38;;;39.25;;
56181;SDS011;51963;46.052;14.544;2024-02-04T01:30:47;85.95;;;39.88;;
56181;SDS011;51963;46.052;14.544;2024-02-04T01:33:13;93.50;;;42.03;;
56181;SDS011;51963;46.052;14.544;2024-02-04T01:35:39;100.80;;;44.00;;
56181;SDS011;51963;46.052;14.544;2024-02-04T01:38:04;95.18;;;44.67;;
56181;SDS011;51963;46.052;14.544;2024-02-04T01:40:30;97.32;;;44.72;;
56181;SDS011;51963;46.052;14.544;2024-02-04T01:42:56;100.05;;;46.40;;
56181;SDS011;51963;46.052;14.544;2024-02-04T01:45:21;96.40;;;43.83;;
56181;SDS011;51963;46.052;14.544;2024-02-04T01:47:47;100.97;;;43.28;;
56181;SDS011;51963;46.052;14.544;2024-02-04T01:50:14;103.75;;;43.15;;
56181;SDS011;51963;46.052;14.544;2024-02-04T01:52:41;96.38;;;44.15;;
56181;SDS011;51963;46.052;14.544;2024-02-04T01:55:09;98.45;;;44.55;;
56181;SDS011;51963;46.052;14.544;2024-02-04T01:57:35;96.05;;;45.00;;
56181;SDS011;51963;46.052;14.544;2024-02-04T02:00:01;97.03;;;44.72;;
56181;SDS011;51963;46.052;14.544;2024-02-04T02:02:32;87.78;;;40.20;;
56181;SDS011;51963;46.052;14.544;2024-02-04T02:04:59;81.47;;;40.50;;
56181;SDS011;51963;46.052;14.544;2024-02-04T02:07:25;89.50;;;41.50;;
56181;SDS011;51963;46.052;14.544;2024-02-04T02:09:52;92.95;;;40.08;;
56181;SDS011;51963;46.052;14.544;2024-02-04T02:12:33;84.32;;;38.85;;
56181;SDS011;51963;46.052;14.544;2024-02-04T02:15:39;88.63;;;41.78;;
56181;SDS011;51963;46.052;14.544;2024-02-04T02:18:03;87.60;;;40.10;;
56181;SDS011;51963;46.052;14.544;2024-02-04T02:20:53;85.47;;;39.63;;
56181;SDS011;51963;46.052;14.544;2024-02-04T02:23:35;92.57;;;40.00;;
56181;SDS011;51963;46.052;14.544;2024-02-04T02:26:09;86.43;;;38.60;;
56181;SDS011;51963;46.052;14.544;2024-02-04T02:28:35;85.55;;;40.40;;
56181;SDS011;51963;46.052;14.544;2024-02-04T02:31:01;85.47;;;41.53;;
56181;SDS011;51963;46.052;14.544;2024-02-04T02:33:27;99.43;;;44.50;;
56181;SDS011;51963;46.052;14.544;2024-02-04T02:35:53;107.88;;;45.97;;
56181;SDS011;51963;46.052;14.544;2024-02-04T02:41:34;104.97;;;43.90;;
56181;SDS011;51963;46.052;14.544;2024-02-04T02:44:01;86.57;;;40.13;;
56181;SDS011;51963;46.052;14.544;2024-02-04T02:46:30;89.38;;;40.70;;
56181;SDS011;51963;46.052;14.544;2024-02-04T02:48:56;85.72;;;38.55;;
56181;SDS011;51963;46.052;14.544;2024-02-04T02:51:22;80.57;;;37.40;;
56181;SDS011;51963;46.052;14.544;2024-02-04T02:53:48;85.80;;;39.50;;
56181;SDS011;51963;46.052;14.544;2024-02-04T02:56:14;87.32;;;38.95;;
56181;SDS011;51963;46.052;14.544;2024-02-04T02:58:39;82.30;;;37.20;;
56181;SDS011;51963;46.052;14.544;2024-02-04T03:01:05;81.20;;;38.40;;
56181;SDS011;51963;46.052;14.544;2024-02-04T03:03:31;85.60;;;37.15;;
56181;SDS011;51963;46.052;14.544;2024-02-04T03:05:56;80.68;;;37.08;;
56181;SDS011;51963;46.052;14.544;2024-02-04T03:08:22;86.10;;;38.60;;
56181;SDS011;51963;46.052;14.544;2024-02-04T03:10:48;81.50;;;35.20;;
56181;SDS011;51963;46.052;14.544;2024-02-04T03:13:13;81.65;;;35.78;;
56181;SDS011;51963;46.052;14.544;2024-02-04T03:15:39;77.88;;;36.63;;
56181;SDS011;51963;46.052;14.544;2024-02-04T03:18:06;77.40;;;36.05;;
56181;SDS011;51963;46.052;14.544;2024-02-04T03:20:32;76.18;;;35.38;;
56181;SDS011;51963;46.052;14.544;2024-02-04T03:22:57;82.47;;;37.20;;
56181;SDS011;51963;46.052;14.544;2024-02-04T03:25:23;81.30;;;35.72;;
56181;SDS011;51963;46.052;14.544;2024-02-04T03:32:46;72.85;;;32.97;;
56181;SDS011;51963;46.052;14.544;2024-02-04T03:35:11;66.60;;;32.13;;
56181;SDS011;51963;46.052;14.544;2024-02-04T03:37:37;75.63;;;34.55;;
56181;SDS011;51963;46.052;14.544;2024-02-04T03:40:03;76.25;;;34.92;;
56181;SDS011;51963;46.052;14.544;2024-02-04T03:42:29;77.35;;;34.58;;
56181;SDS011;51963;46.052;14.544;2024-02-04T03:44:55;84.38;;;37.80;;
56181;SDS011;51963;46.052;14.544;2024-02-04T03:47:21;77.18;;;35.50;;
56181;SDS011;51963;46.052;14.544;2024-02-04T03:49:47;89.10;;;39.83;;
56181;SDS011;51963;46.052;14.544;2024-02-04T03:52:12;88.15;;;41.38;;
56181;SDS011;51963;46.052;14.544;2024-02-04T03:54:38;83.78;;;38.45;;
56181;SDS011;51963;46.052;14.544;2024-02-04T03:57:04;82.93;;;39.00;;
56181;SDS011;51963;46.052;14.544;2024-02-04T03:59:30;81.78;;;37.28;;
56181;SDS011;51963;46.052;14.544;2024-02-04T04:01:55;86.45;;;39.13;;
56181;SDS011;51963;46.052;14.544;2024-02-04T04:04:23;84.78;;;38.75;;
56181;SDS011;51963;46.052;14.544;2024-02-04T04:06:49;85.53;;;39.50;;
56181;SDS011;51963;46.052;14.544;2024-02-04T04:09:14;83.13;;;37.83;;
56181;SDS011;51963;46.052;14.544;2024-02-04T04:11:40;81.50;;;38.75;;
56181;SDS011;51963;46.052;14.544;2024-02-04T04:14:06;99.85;;;45.20;;
56181;SDS011;51963;46.052;14.544;2024-02-04T04:16:31;108.93;;;47.53;;
56181;SDS011;51963;46.052;14.544;2024-02-04T04:18:57;104.80;;;46.60;;
56181;SDS011;51963;46.052;14.544;2024-02-04T04:21:25;99.78;;;46.08;;
56181;SDS011;51963;46.052;14.544;2024-02-04T04:23:51;101.22;;;44.65;;
56181;SDS011;51963;46.052;14.544;2024-02-04T04:26:17;94.07;;;44.22;;
56181;SDS011;51963;46.052;14.544;2024-02-04T04:28:42;97.03;;;42.05;;
56181;SDS011;51963;46.052;14.544;2024-02-04T04:31:08;105.05;;;45.88;;
56181;SDS011;51963;46.052;14.544;2024-02-04T04:33:35;96.13;;;43.67;;
56181;SDS011;51963;46.052;14.544;2024-02-04T04:36:01;98.68;;;43.33;;
56181;SDS011;51963;46.052;14.544;2024-02-04T04:38:27;96.85;;;43.03;;
56181;SDS011;51963;46.052;14.544;2024-02-04T04:40:53;95.05;;;41.13;;
56181;SDS011;51963;46.052;14.544;2024-02-04T04:43:19;86.78;;;38.60;;
56181;SDS011;51963;46.052;14.544;2024-02-04T04:45:44;87.55;;;40.65;;
56181;SDS011;51963;46.052;14.544;2024-02-04T04:48:10;92.28;;;40.50;;
56181;SDS011;51963;46.052;14.544;2024-02-04T04:50:36;93.47;;;41.20;;
56181;SDS011;51963;46.052;14.544;2024-02-04T04:53:01;96.50;;;42.10;;
56181;SDS011;51963;46.052;14.544;2024-02-04T04:55:27;93.82;;;41.13;;
56181;SDS011;51963;46.052;14.544;2024-02-04T04:57:53;88.20;;;39.70;;
56181;SDS011;51963;46.052;14.544;2024-02-04T05:00:19;92.32;;;40.50;;
56181;SDS011;51963;46.052;14.544;2024-02-04T05:02:45;97.15;;;42.75;;
56181;SDS011;51963;46.052;14.544;2024-02-04T05:05:11;95.45;;;43.72;;
56181;SDS011;51963;46.052;14.544;2024-02-04T05:07:37;98.38;;;42.25;;
56181;SDS011;51963;46.052;14.544;2024-02-04T05:10:03;94.32;;;43.15;;
56181;SDS011;51963;46.052;14.544;2024-02-04T05:12:29;88.47;;;39.60;;
56181;SDS011;51963;46.052;14.544;2024-02-04T05:14:55;90.32;;;41.50;;
56181;SDS011;51963;46.052;14.544;2024-02-04T05:17:21;101.65;;;44.95;;
56181;SDS011;51963;46.052;14.544;2024-02-04T05:19:47;93.88;;;45.42;;
56181;SDS011;51963;46.052;14.544;2024-02-04T05:22:13;101.68;;;45.95;;
56181;SDS011;51963;46.052;14.544;2024-02-04T05:24:38;102.85;;;44.25;;
56181;SDS011;51963;46.052;14.544;2024-02-04T05:27:04;97.72;;;44.55;;
56181;SDS011;51963;46.052;14.544;2024-02-04T05:29:32;106.07;;;45.33;;
56181;SDS011;51963;46.052;14.544;2024-02-04T05:31:58;118.30;;;52.10;;
56181;SDS011;51963;46.052;14.544;2024-02-04T05:34:23;117.88;;;52.83;;
56181;SDS011;51963;46.052;14.544;2024-02-04T05:36:49;116.97;;;51.83;;
56181;SDS011;51963;46.052;14.544;2024-02-04T05:39:15;116.95;;;50.58;;
56181;SDS011;51963;46.052;14.544;2024-02-04T05:41:41;124.60;;;51.63;;
56181;SDS011;51963;46.052;14.544;2024-02-04T05:44:08;106.38;;;47.65;;
56181;SDS011;51963;46.052;14.544;2024-02-04T05:46:34;106.00;;;48.55;;
56181;SDS011;51963;46.052;14.544;2024-02-04T05:49:00;115.10;;;50.17;;
56181;SDS011;51963;46.052;14.544;2024-02-04T05:51:26;97.03;;;45.55;;
56181;SDS011;51963;46.052;14.544;2024-02-04T05:53:52;101.82;;;45.90;;
56181;SDS011;51963;46.052;14.544;2024-02-04T05:56:19;99.70;;;44.28;;
56181;SDS011;51963;46.052;14.544;2024-02-04T05:58:47;102.60;;;44.22;;
56181;SDS011;51963;46.052;14.544;2024-02-04T06:01:13;102.65;;;45.40;;
56181;SDS011;51963;46.052;14.544;2024-02-04T06:03:41;103.25;;;46.30;;
56181;SDS011;51963;46.052;14.544;2024-02-04T06:06:07;101.43;;;44.70;;
56181;SDS011;51963;46.052;14.544;2024-02-04T06:08:32;104.63;;;44.30;;
56181;SDS011;51963;46.052;14.544;2024-02-04T06:10:58;90.90;;;42.88;;
56181;SDS011;51963;46.052;14.544;2024-02-04T06:13:24;110.82;;;48.67;;
56181;SDS011;51963;46.052;14.544;2024-02-04T06:15:49;113.18;;;49.58;;
56181;SDS011;51963;46.052;14.544;2024-02-04T06:18:15;104.22;;;45.45;;
56181;SDS011;51963;46.052;14.544;2024-02-04T06:20:40;110.22;;;46.03;;
56181;SDS011;51963;46.052;14.544;2024-02-04T06:23:06;125.22;;;50.22;;
56181;SDS011;51963;46.052;14.544;2024-02-04T06:25:32;122.90;;;50.55;;
56181;SDS011;51963;46.052;14.544;2024-02-04T06:27:57;110.35;;;48.42;;
56181;SDS011;51963;46.052;14.544;2024-02-04T06:30:23;116.60;;;48.53;;
56181;SDS011;51963;46.052;14.544;2024-02-04T06:32:49;107.53;;;45.33;;
56181;SDS011;51963;46.052;14.544;2024-02-04T06:35:15;124.82;;;50.20;;
56181;SDS011;51963;46.052;14.544;2024-02-04T06:37:41;127.20;;;53.40;;
56181;SDS011;51963;46.052;14.544;2024-02-04T06:40:08;117.90;;;50.88;;
56181;SDS011;51963;46.052;14.544;2024-02-04T06:42:35;116.10;;;51.22;;
56181;SDS011;51963;46.052;14.544;2024-02-04T06:45:01;110.43;;;49.15;;
56181;SDS011;51963;46.052;14.544;2024-02-04T06:47:26;109.55;;;48.53;;
56181;SDS011;51963;46.052;14.544;2024-02-04T06:49:52;112.82;;;47.97;;
56181;SDS011;51963;46.052;14.544;2024-02-04T06:52:18;106.55;;;45.25;;
56181;SDS011;51963;46.052;14.544;2024-02-04T06:54:44;102.95;;;45.53;;
56181;SDS011;51963;46.052;14.544;2024-02-04T06:57:10;95.30;;;42.95;;
56181;SDS011;51963;46.052;14.544;2024-02-04T06:59:35;105.25;;;44.42;;
56181;SDS011;51963;46.052;14.544;2024-02-04T07:02:01;100.97;;;43.47;;
56181;SDS011;51963;46.052;14.544;2024-02-04T07:04:27;103.63;;;46.17;;
56181;SDS011;51963;46.052;14.544;2024-02-04T07:06:53;98.38;;;43.80;;
56181;SDS011;51963;46.052;14.544;2024-02-04T07:09:18;108.72;;;47.67;;
56181;SDS011;51963;46.052;14.544;2024-02-04T07:11:44;103.68;;;45.85;;
56181;SDS011;51963;46.052;14.544;2024-02-04T07:14:10;118.22;;;47.97;;
56181;SDS011;51963;46.052;14.544;2024-02-04T07:16:36;111.15;;;46.90;;
56181;SDS011;51963;46.052;14.544;2024-02-04T07:19:02;113.38;;;48.60;;
56181;SDS011;51963;46.052;14.544;2024-02-04T07:21:28;111.97;;;47.35;;
56181;SDS011;51963;46.052;14.544;2024-02-04T07:23:53;107.72;;;45.22;;
56181;SDS011;51963;46.052;14.544;2024-02-04T07:26:19;112.68;;;47.03;;
56181;SDS011;51963;46.052;14.544;2024-02-04T07:28:44;95.70;;;42.83;;
56181;SDS011;51963;46.052;14.544;2024-02-04T07:31:10;102.05;;;44.25;;
56181;SDS011;51963;46.052;14.544;2024-02-04T07:33:36;103.05;;;43.85;;
56181;SDS011;51963;46.052;14.544;2024-02-04T07:36:02;106.85;;;45.03;;
56181;SDS011;51963;46.052;14.544;2024-02-04T07:38:28;95.78;;;42.03;;
56181;SDS011;51963;46.052;14.544;2024-02-04T07:40:54;90.05;;;42.53;;
56181;SDS011;51963;46.052;14.544;2024-02-04T07:43:21;90.55;;;42.28;;
56181;SDS011;51963;46.052;14.544;2024-02-04T07:45:47;101.70;;;43.40;;
56181;SDS011;51963;46.052;14.544;2024-02-04T07:48:13;102.20;;;44.15;;
56181;SDS011;51963;46.052;14.544;2024-02-04T07:50:39;98.05;;;43.40;;
56181;SDS011;51963;46.052;14.544;2024-02-04T07:53:04;99.22;;;43.10;;
56181;SDS011;51963;46.052;14.544;2024-02-04T07:55:30;104.97;;;44.65;;
56181;SDS011;51963;46.052;14.544;2024-02-04T07:57:58;98.10;;;43.03;;
56181;SDS011;51963;46.052;14.544;2024-02-04T08:02:50;107.07;;;44.45;;
56181;SDS011;51963;46.052;14.544;2024-02-04T08:05:15;106.75;;;45.33;;
56181;SDS011;51963;46.052;14.544;2024-02-04T08:07:41;115.18;;;47.03;;
56181;SDS011;51963;46.052;14.544;2024-02-04T08:10:07;103.90;;;44.78;;
56181;SDS011;51963;46.052;14.544;2024-02-04T08:12:33;121.97;;;48.42;;
56181;SDS011;51963;46.052;14.544;2024-02-04T08:15:01;111.00;;;45.60;;
56181;SDS011;51963;46.052;14.544;2024-02-04T08:17:35;98.35;;;43.05;;
56181;SDS011;51963;46.052;14.544;2024-02-04T08:20:01;98.35;;;45.28;;
56181;SDS011;51963;46.052;14.544;2024-02-04T08:22:29;101.47;;;42.50;;
56181;SDS011;51963;46.052;14.544;2024-02-04T08:24:54;99.55;;;43.78;;
56181;SDS011;51963;46.052;14.544;2024-02-04T08:27:22;104.25;;;45.45;;
56181;SDS011;51963;46.052;14.544;2024-02-04T08:29:53;94.70;;;44.38;;
56181;SDS011;51963;46.052;14.544;2024-02-04T08:32:18;91.60;;;43.92;;
56181;SDS011;51963;46.052;14.544;2024-02-04T08:34:44;98.80;;;46.15;;
56181;SDS011;51963;46.052;14.544;2024-02-04T08:37:10;96.78;;;44.83;;
56181;SDS011;51963;46.052;14.544;2024-02-04T08:39:36;91.40;;;42.15;;
56181;SDS011;51963;46.052;14.544;2024-02-04T08:42:01;87.15;;;41.60;;
56181;SDS011;51963;46.052;14.544;2024-02-04T08:44:27;92.72;;;44.08;;
56181;SDS011;51963;46.052;14.544;2024-02-04T08:46:53;83.63;;;41.10;;
56181;SDS011;51963;46.052;14.544;2024-02-04T08:49:18;85.90;;;41.72;;
56181;SDS011;51963;46.052;14.544;2024-02-04T08:51:44;88.25;;;42.95;;
56181;SDS011;51963;46.052;14.544;2024-02-04T08:54:10;82.97;;;42.97;;
56181;SDS011;51963;46.052;14.544;2024-02-04T08:56:36;84.60;;;42.95;;
56181;SDS011;51963;46.052;14.544;2024-02-04T08:59:02;82.72;;;40.92;;
56181;SDS011;51963;46.052;14.544;2024-02-04T09:01:28;81.45;;;44.00;;
56181;SDS011;51963;46.052;14.544;2024-02-04T09:03:53;86.95;;;44.08;;
56181;SDS011;51963;46.052;14.544;2024-02-04T09:06:19;82.18;;;43.63;;
56181;SDS011;51963;46.052;14.544;2024-02-04T09:08:46;81.47;;;42.63;;
56181;SDS011;51963;46.052;14.544;2024-02-04T09:11:12;86.65;;;44.08;;
56181;SDS011;51963;46.052;14.544;2024-02-04T09:13:44;79.13;;;43.28;;
56181;SDS011;51963;46.052;14.544;2024-02-04T09:16:10;84.70;;;42.97;;
56181;SDS011;51963;46.052;14.544;2024-02-04T09:18:38;82.63;;;41.83;;
56181;SDS011;51963;46.052;14.544;2024-02-04T09:21:03;72.50;;;39.28;;
56181;SDS011;51963;46.052;14.544;2024-02-04T09:23:29;72.18;;;40.35;;
56181;SDS011;51963;46.052;14.544;2024-02-04T09:25:55;73.63;;;40.03;;
56181;SDS011;51963;46.052;14.544;2024-02-04T09:28:20;71.45;;;39.70;;
56181;SDS011;51963;46.052;14.544;2024-02-04T09:30:46;71.38;;;40.47;;
56181;SDS011;51963;46.052;14.544;2024-02-04T09:33:13;71.88;;;41.67;;
56181;SDS011;51963;46.052;14.544;2024-02-04T09:35:39;74.22;;;40.92;;
56181;SDS011;51963;46.052;14.544;2024-02-04T09:38:05;73.07;;;41.00;;
56181;SDS011;51963;46.052;14.544;2024-02-04T09:40:31;70.28;;;39.88;;
56181;SDS011;51963;46.052;14.544;2024-02-04T09:42:57;72.30;;;38.75;;
56181;SDS011;51963;46.052;14.544;2024-02-04T09:45:23;62.88;;;35.38;;
56181;SDS011;51963;46.052;14.544;2024-02-04T09:47:50;50.00;;;28.95;;
56181;SDS011;51963;46.052;14.544;2024-02-04T09:52:46;58.75;;;31.75;;
56181;SDS011;51963;46.052;14.544;2024-02-04T09:55:15;62.03;;;35.95;;
56181;SDS011;51963;46.052;14.544;2024-02-04T09:57:42;61.90;;;36.08;;
56181;SDS011;51963;46.052;14.544;2024-02-04T10:00:07;53.60;;;30.00;;
56181;SDS011;51963;46.052;14.544;2024-02-04T10:02:38;50.70;;;29.92;;
56181;SDS011;51963;46.052;14.544;2024-02-04T10:05:06;56.83;;;32.93;;
56181;SDS011;51963;46.052;14.544;2024-02-04T10:07:34;52.28;;;29.73;;
56181;SDS011;51963;46.052;14.544;2024-02-04T10:10:01;48.17;;;28.23;;
56181;SDS011;51963;46.052;14.544;2024-02-04T10:12:27;50.92;;;29.05;;
56181;SDS011;51963;46.052;14.544;2024-02-04T10:14:56;51.65;;;29.52;;
56181;SDS011;51963;46.052;14.544;2024-02-04T10:17:22;54.20;;;30.25;;
56181;SDS011;51963;46.052;14.544;2024-02-04T10:19:48;51.28;;;30.13;;
56181;SDS011;51963;46.052;14.544;2024-02-04T10:22:14;50.80;;;30.15;;
56181;SDS011;51963;46.052;14.544;2024-02-04T10:24:42;56.28;;;32.15;;
56181;SDS011;51963;46.052;14.544;2024-02-04T10:27:09;56.28;;;31.50;;
56181;SDS011;51963;46.052;14.544;2024-02-04T10:29:36;53.35;;;29.38;;
56181;SDS011;51963;46.052;14.544;2024-02-04T10:32:02;46.58;;;27.20;;
56181;SDS011;51963;46.052;14.544;2024-02-04T10:34:28;50.38;;;29.77;;
56181;SDS011;51963;46.052;14.544;2024-02-04T10:36:57;51.58;;;29.27;;
56181;SDS011;51963;46.052;14.544;2024-02-04T10:39:22;52.00;;;29.75;;
56181;SDS011;51963;46.052;14.544;2024-02-04T10:41:51;51.38;;;29.38;;
56181;SDS011;51963;46.052;14.544;2024-02-04T10:44:20;47.63;;;28.02;;
56181;SDS011;51963;46.052;14.544;2024-02-04T10:46:48;48.70;;;28.45;;
56181;SDS011;51963;46.052;14.544;2024-02-04T10:49:15;48.35;;;28.77;;
56181;SDS011;51963;46.052;14.544;2024-02-04T10:51:41;44.28;;;26.60;;
56181;SDS011;51963;46.052;14.544;2024-02-04T10:54:08;44.08;;;25.58;;
56181;SDS011;51963;46.052;14.544;2024-02-04T10:56:37;43.00;;;25.63;;
56181;SDS011;51963;46.052;14.544;2024-02-04T10:59:07;44.97;;;27.40;;
56181;SDS011;51963;46.052;14.544;2024-02-04T11:01:34;50.03;;;27.83;;
56181;SDS011;51963;46.052;14.544;2024-02-04T11:04:01;45.92;;;27.90;;
56181;SDS011;51963;46.052;14.544;2024-02-04T11:06:27;47.97;;;28.13;;
56181;SDS011;51963;46.052;14.544;2024-02-04T11:08:55;45.38;;;29.75;;
56181;SDS011;51963;46.052;14.544;2024-02-04T11:11:23;45.53;;;28.65;;
56181;SDS011;51963;46.052;14.544;2024-02-04T11:13:49;46.67;;;27.58;;
56181;SDS011;51963;46.052;14.544;2024-02-04T11:27:34;43.58;;;28.23;;
56181;SDS011;51963;46.052;14.544;2024-02-04T11:30:00;44.83;;;28.83;;
56181;SDS011;51963;46.052;14.544;2024-02-04T11:32:27;44.88;;;29.80;;
56181;SDS011;51963;46.052;14.544;2024-02-04T11:34:53;45.28;;;29.65;;
56181;SDS011;51963;46.052;14.544;2024-02-04T11:37:20;49.15;;;31.38;;
56181;SDS011;51963;46.052;14.544;2024-02-04T11:39:52;47.88;;;32.13;;
56181;SDS011;51963;46.052;14.544;2024-02-04T11:42:19;49.33;;;31.42;;
56181;SDS011;51963;46.052;14.544;2024-02-04T11:44:46;44.30;;;27.80;;
56181;SDS011;51963;46.052;14.544;2024-02-04T11:47:11;42.42;;;29.00;;
56181;SDS011;51963;46.052;14.544;2024-02-04T11:49:53;46.97;;;30.65;;
56181;SDS011;51963;46.052;14.544;2024-02-04T11:52:27;47.33;;;31.08;;
56181;SDS011;51963;46.052;14.544;2024-02-04T11:54:53;45.08;;;31.48;;
56181;SDS011;51963;46.052;14.544;2024-02-04T11:57:19;52.15;;;30.25;;
56181;SDS011;51963;46.052;14.544;2024-02-04T11:59:46;46.63;;;31.48;;
56181;SDS011;51963;46.052;14.544;2024-02-04T12:02:12;49.15;;;32.58;;
56181;SDS011;51963;46.052;14.544;2024-02-04T12:04:41;48.70;;;32.15;;
56181;SDS011;51963;46.052;14.544;2024-02-04T12:07:08;48.47;;;31.60;;
56181;SDS011;51963;46.052;14.544;2024-02-04T12:09:35;44.42;;;29.90;;
56181;SDS011;51963;46.052;14.544;2024-02-04T12:12:01;42.57;;;29.23;;
56181;SDS011;51963;46.052;14.544;2024-02-04T12:14:28;44.35;;;29.95;;
56181;SDS011;51963;46.052;14.544;2024-02-04T12:16:57;43.60;;;30.02;;
56181;SDS011;51963;46.052;14.544;2024-02-04T12:19:23;47.95;;;30.58;;
56181;SDS011;51963;46.052;14.544;2024-02-04T12:21:49;42.58;;;27.40;;
56181;SDS011;51963;46.052;14.544;2024-02-04T12:24:15;45.88;;;32.00;;
56181;SDS011;51963;46.052;14.544;2024-02-04T12:26:41;46.78;;;30.48;;
56181;SDS011;51963;46.052;14.544;2024-02-04T12:29:07;46.10;;;31.25;;
56181;SDS011;51963;46.052;14.544;2024-02-04T12:31:33;44.95;;;29.55;;
56181;SDS011;51963;46.052;14.544;2024-02-04T12:33:59;40.97;;;29.38;;
56181;SDS011;51963;46.052;14.544;2024-02-04T12:36:29;38.17;;;28.83;;
56181;SDS011;51963;46.052;14.544;2024-02-04T12:38:56;41.08;;;29.08;;
56181;SDS011;51963;46.052;14.544;2024-02-04T12:41:23;43.45;;;30.27;;
56181;SDS011;51963;46.052;14.544;2024-02-04T12:43:50;37.88;;;27.65;;
56181;SDS011;51963;46.052;14.544;2024-02-04T12:46:17;38.45;;;28.15;;
56181;SDS011;51963;46.052;14.544;2024-02-04T12:48:44;42.25;;;30.25;;
56181;SDS011;51963;46.052;14.544;2024-02-04T12:51:10;39.13;;;28.83;;
56181;SDS011;51963;46.052;14.544;2024-02-04T12:53:38;40.72;;;28.98;;
56181;SDS011;51963;46.052;14.544;2024-02-04T12:56:04;41.60;;;29.38;;
56181;SDS011;51963;46.052;14.544;2024-02-04T12:58:30;38.58;;;28.08;;
56181;SDS011;51963;46.052;14.544;2024-02-04T13:01:01;42.08;;;29.13;;
56181;SDS011;51963;46.052;14.544;2024-02-04T13:03:27;43.83;;;30.10;;
56181;SDS011;51963;46.052;14.544;2024-02-04T13:05:57;47.08;;;30.90;;
56181;SDS011;51963;46.052;14.544;2024-02-04T13:08:23;48.45;;;30.92;;
56181;SDS011;51963;46.052;14.544;2024-02-04T13:10:56;42.45;;;29.88;;
56181;SDS011;51963;46.052;14.544;2024-02-04T13:13:22;43.95;;;29.55;;
56181;SDS011;51963;46.052;14.544;2024-02-04T13:15:53;39.42;;;28.98;;
56181;SDS011;51963;46.052;14.544;2024-02-04T13:18:19;42.30;;;28.45;;
56181;SDS011;51963;46.052;14.544;2024-02-04T13:20:45;43.45;;;29.42;;
56181;SDS011;51963;46.052;14.544;2024-02-04T13:23:11;41.78;;;28.30;;
56181;SDS011;51963;46.052;14.544;2024-02-04T13:25:37;40.80;;;28.20;;
56181;SDS011;51963;46.052;14.544;2024-02-04T13:28:03;45.95;;;29.00;;
56181;SDS011;51963;46.052;14.544;2024-02-04T13:30:29;39.35;;;28.58;;
56181;SDS011;51963;46.052;14.544;2024-02-04T13:32:55;36.95;;;27.95;;
56181;SDS011;51963;46.052;14.544;2024-02-04T13:35:22;42.97;;;28.13;;
56181;SDS011;51963;46.052;14.544;2024-02-04T13:37:49;41.03;;;28.23;;
56181;SDS011;51963;46.052;14.544;2024-02-04T13:40:18;41.63;;;28.48;;
56181;SDS011;51963;46.052;14.544;2024-02-04T13:42:44;39.17;;;26.85;;
56181;SDS011;51963;46.052;14.544;2024-02-04T13:45:11;39.40;;;25.98;;
56181;SDS011;51963;46.052;14.544;2024-02-04T13:47:41;41.78;;;26.88;;
56181;SDS011;51963;46.052;14.544;2024-02-04T13:50:07;36.65;;;26.02;;
56181;SDS011;51963;46.052;14.544;2024-02-04T13:52:34;38.78;;;25.00;;
56181;SDS011;51963;46.052;14.544;2024-02-04T13:55:00;36.35;;;24.70;;
56181;SDS011;51963;46.052;14.544;2024-02-04T13:57:26;38.13;;;24.85;;
56181;SDS011;51963;46.052;14.544;2024-02-04T13:59:51;40.05;;;25.25;;
56181;SDS011;51963;46.052;14.544;2024-02-04T14:02:17;35.83;;;23.90;;
56181;SDS011;51963;46.052;14.544;2024-02-04T14:04:43;35.17;;;23.30;;
56181;SDS011;51963;46.052;14.544;2024-02-04T14:07:09;36.20;;;23.30;;
56181;SDS011;51963;46.052;14.544;2024-02-04T14:09:34;37.08;;;22.75;;
56181;SDS011;51963;46.052;14.544;2024-02-04T14:12:01;33.47;;;21.98;;
56181;SDS011;51963;46.052;14.544;2024-02-04T14:14:28;34.78;;;22.00;;
56181;SDS011;51963;46.052;14.544;2024-02-04T14:16:55;36.13;;;22.27;;
56181;SDS011;51963;46.052;14.544;2024-02-04T14:19:20;39.72;;;22.08;;
56181;SDS011;51963;46.052;14.544;2024-02-04T14:21:46;34.33;;;22.30;;
56181;SDS011;51963;46.052;14.544;2024-02-04T14:24:12;35.20;;;22.40;;
56181;SDS011;51963;46.052;14.544;2024-02-04T14:26:38;33.35;;;21.38;;